Airport Name : Wright Patterson AFB

Other Name : Wright Patterson

ICAO : KFFO

IATA : FFO

FAA : FFO

Latitude : 39.826111

Longitude : -84.048332

Country : United States

Local Date and Time : 4/21/2018 5:53:00 AM

 

TAF (Terminal Aerodrome Forecast)

 

METAR (METeorological Aerodrome Report)

KFFO 210856Z AUTO 00000KT 10SM CLR 01/M03 A3044 RMK AO2 SLP316 T00121035 53001 $

KFFO 210756Z AUTO 00000KT 10SM CLR 04/M02 A3043 RMK AO2 SLP311 T00411019 $

KFFO 210656Z AUTO 00000KT 10SM CLR 02/M03 A3043 RMK AO2 SLP312 T00231028 $

KFFO 210556Z AUTO 00000KT 10SM CLR 06/M04 A3043 RMK AO2 SLP311 T00611038 10124 20042 53002 $